Tahlequah, OK

1:23 PM CDT on August 18, 2017 (GMT -0500)
Tahlequah Municipal | | Change Station

Elev 873 ft 35.93 °N, 95.00 °W | Updated 8 minutes ago

Scattered Clouds
Scattered Clouds
90 °F
Feels Like 98 °F
N
8
Wind Variable Wind from SW

Today
High -- | Low -- °F
--% Chance of Precip.
Yesterday
High -- | Low -- °F
Precip. -- in
Pressure 30.00 in
Visibility 10.0 miles
Clouds Scattered Clouds 3200 ft
Scattered Clouds 3900 ft
Heat Index 98 °F
Dew Point 73 °F
Humidity 59%
Rainfall 0.00 in
Snow Depth Not available.
6:41 AM 8:05 PM
Waning Crescent, 12% visible
METAR KTQH 181815Z AUTO 22007KT 10SM SCT032 SCT039 32/23 A3000 RMK AO2
Pressure 30.00 in
Visibility 10.0 miles
Clouds Scattered Clouds 3200 ft
Scattered Clouds 3900 ft
Heat Index 98 °F
Dew Point 73 °F
Humidity 59%
Rainfall 0.00 in
Snow Depth Not available.
6:41 AM 8:05 PM
Waning Crescent, 12% visible
METAR KTQH 181815Z AUTO 22007KT 10SM SCT032 SCT039 32/23 A3000 RMK AO2

Get Severe Weather Alerts

Thanks for signing up!

Be on the lookout for a verification email in your inbox.

You'll start receiving the daily forecast at 6 AM.

×

10-Day Weather Forecast

Almanac

Astronomy

Aug. 18, 2017 Rise Set
Actual Time
Civil Twilight
Nautical Twilight
Astronomical Twilight
Moon
Length of Visible Light
Length of Day
Tomorrow will be .
, % of the Moon is Illuminated

Today's Extremes

State Highs State Lows

Community

WunderPhotos

Category 6

Welcome to Category 6. This is the collective home for Weather Underground's featured writeups by Dr. Jeff Masters (right), Bob Henson (left), Chris Burt, and other regular contributors.

Nearby

Air Quality

  Air Quality AQ Index Pollutant
Not available.

Snow Depth

Station Depth Elevation

Earthquake Activity

City Distance Mag. Time & Date
Minimum magnitude displayed is 2.5.

Coastal Water Temperatures

Place Temperature

Stations

Nearby Weather Stations

Station Location Temp. Windchill Dew Point Humidity Wind Precip. Elev Updated Type
                   

Watches & Warnings

There are currently no watches in effect.